Terminal Aerodrome Forecast
Issued by NWS

Home | Current Version | Previous Version | Text Only | Print | Product List | Glossary On
Versions: 1 2 3 4 5 6 7 8 9 10 11 12
000
FTUS44 KLZK 031737
TAFHRO
TAF
KHRO 031737Z 0318/0418 15005KT P6SM FEW040
     FM040000 15003KT P6SM SKC
     FM041600 15006KT P6SM FEW040=

USA.gov is the U.S. government's official web portal to all federal, state and local government web resources and services.